sensor_id;sensor_type;location;lat;lon;timestamp;P1;durP1;ratioP1;P2;durP2;ratioP2
70078;SDS011;57451;52.496;13.456;2022-11-20T00:01:30;13.43;;;6.63;;
70078;SDS011;57451;52.496;13.456;2022-11-20T00:03:58;13.82;;;6.80;;
70078;SDS011;57451;52.496;13.456;2022-11-20T00:06:26;14.80;;;7.22;;
70078;SDS011;57451;52.496;13.456;2022-11-20T00:08:54;15.02;;;6.72;;
70078;SDS011;57451;52.496;13.456;2022-11-20T00:11:25;12.93;;;6.78;;
70078;SDS011;57451;52.496;13.456;2022-11-20T00:13:54;12.83;;;5.83;;
70078;SDS011;57451;52.496;13.456;2022-11-20T00:16:24;13.93;;;6.72;;
70078;SDS011;57451;52.496;13.456;2022-11-20T00:18:53;13.38;;;6.70;;
70078;SDS011;57451;52.496;13.456;2022-11-20T00:21:21;13.50;;;6.53;;
70078;SDS011;57451;52.496;13.456;2022-11-20T00:23:50;12.48;;;6.45;;
70078;SDS011;57451;52.496;13.456;2022-11-20T00:26:21;12.30;;;6.20;;
70078;SDS011;57451;52.496;13.456;2022-11-20T00:28:52;12.82;;;6.32;;
70078;SDS011;57451;52.496;13.456;2022-11-20T00:31:20;12.10;;;6.30;;
70078;SDS011;57451;52.496;13.456;2022-11-20T00:33:48;14.75;;;6.57;;
70078;SDS011;57451;52.496;13.456;2022-11-20T00:36:17;13.93;;;6.63;;
70078;SDS011;57451;52.496;13.456;2022-11-20T00:38:45;13.67;;;6.97;;
70078;SDS011;57451;52.496;13.456;2022-11-20T00:41:14;15.32;;;7.13;;
70078;SDS011;57451;52.496;13.456;2022-11-20T00:43:42;13.45;;;6.60;;
70078;SDS011;57451;52.496;13.456;2022-11-20T00:46:12;15.48;;;6.72;;
70078;SDS011;57451;52.496;13.456;2022-11-20T00:48:40;13.95;;;6.45;;
70078;SDS011;57451;52.496;13.456;2022-11-20T00:51:08;13.23;;;5.93;;
70078;SDS011;57451;52.496;13.456;2022-11-20T00:53:36;12.32;;;5.93;;
70078;SDS011;57451;52.496;13.456;2022-11-20T00:56:04;13.13;;;6.40;;
70078;SDS011;57451;52.496;13.456;2022-11-20T00:58:33;14.40;;;6.90;;
70078;SDS011;57451;52.496;13.456;2022-11-20T01:01:02;12.98;;;6.32;;
70078;SDS011;57451;52.496;13.456;2022-11-20T01:03:32;14.00;;;7.07;;
70078;SDS011;57451;52.496;13.456;2022-11-20T01:06:00;14.05;;;6.68;;
70078;SDS011;57451;52.496;13.456;2022-11-20T01:08:31;15.60;;;7.35;;
70078;SDS011;57451;52.496;13.456;2022-11-20T01:10:59;17.52;;;7.28;;
70078;SDS011;57451;52.496;13.456;2022-11-20T01:13:28;14.85;;;7.78;;
70078;SDS011;57451;52.496;13.456;2022-11-20T01:16:06;15.53;;;7.60;;
70078;SDS011;57451;52.496;13.456;2022-11-20T01:18:37;12.25;;;6.35;;
70078;SDS011;57451;52.496;13.456;2022-11-20T01:21:07;16.73;;;8.07;;
70078;SDS011;57451;52.496;13.456;2022-11-20T01:23:37;14.23;;;7.35;;
70078;SDS011;57451;52.496;13.456;2022-11-20T01:26:06;15.00;;;7.20;;
70078;SDS011;57451;52.496;13.456;2022-11-20T01:28:35;16.40;;;7.80;;
70078;SDS011;57451;52.496;13.456;2022-11-20T01:31:10;19.73;;;7.57;;
70078;SDS011;57451;52.496;13.456;2022-11-20T01:33:40;14.38;;;7.15;;
70078;SDS011;57451;52.496;13.456;2022-11-20T01:36:09;17.13;;;7.50;;
70078;SDS011;57451;52.496;13.456;2022-11-20T01:38:37;15.00;;;7.35;;
70078;SDS011;57451;52.496;13.456;2022-11-20T01:41:05;14.73;;;7.17;;
70078;SDS011;57451;52.496;13.456;2022-11-20T01:43:33;16.25;;;7.25;;
70078;SDS011;57451;52.496;13.456;2022-11-20T01:46:03;14.23;;;6.53;;
70078;SDS011;57451;52.496;13.456;2022-11-20T01:48:36;12.27;;;6.95;;
70078;SDS011;57451;52.496;13.456;2022-11-20T01:51:10;16.02;;;7.55;;
70078;SDS011;57451;52.496;13.456;2022-11-20T01:53:43;13.27;;;6.53;;
70078;SDS011;57451;52.496;13.456;2022-11-20T01:56:11;16.20;;;7.72;;
70078;SDS011;57451;52.496;13.456;2022-11-20T01:58:42;14.00;;;6.88;;
70078;SDS011;57451;52.496;13.456;2022-11-20T02:01:14;15.75;;;8.13;;
70078;SDS011;57451;52.496;13.456;2022-11-20T02:03:43;14.90;;;6.93;;
70078;SDS011;57451;52.496;13.456;2022-11-20T02:06:12;13.97;;;6.87;;
70078;SDS011;57451;52.496;13.456;2022-11-20T02:08:44;15.57;;;6.63;;
70078;SDS011;57451;52.496;13.456;2022-11-20T02:11:11;15.63;;;7.72;;
70078;SDS011;57451;52.496;13.456;2022-11-20T02:13:39;15.18;;;7.00;;
70078;SDS011;57451;52.496;13.456;2022-11-20T02:16:11;15.73;;;7.50;;
70078;SDS011;57451;52.496;13.456;2022-11-20T02:18:43;15.10;;;7.40;;
70078;SDS011;57451;52.496;13.456;2022-11-20T02:21:19;14.35;;;6.93;;
70078;SDS011;57451;52.496;13.456;2022-11-20T02:24:06;13.27;;;7.13;;
70078;SDS011;57451;52.496;13.456;2022-11-20T02:26:41;12.52;;;6.82;;
70078;SDS011;57451;52.496;13.456;2022-11-20T02:29:12;16.23;;;7.70;;
70078;SDS011;57451;52.496;13.456;2022-11-20T02:31:42;14.03;;;6.97;;
70078;SDS011;57451;52.496;13.456;2022-11-20T02:34:10;13.13;;;6.47;;
70078;SDS011;57451;52.496;13.456;2022-11-20T02:36:38;15.52;;;7.15;;
70078;SDS011;57451;52.496;13.456;2022-11-20T02:39:08;16.55;;;7.78;;
70078;SDS011;57451;52.496;13.456;2022-11-20T02:41:38;17.15;;;7.30;;
70078;SDS011;57451;52.496;13.456;2022-11-20T02:44:06;16.67;;;7.47;;
70078;SDS011;57451;52.496;13.456;2022-11-20T02:46:33;16.42;;;8.52;;
70078;SDS011;57451;52.496;13.456;2022-11-20T02:49:01;16.50;;;7.70;;
70078;SDS011;57451;52.496;13.456;2022-11-20T02:51:29;12.70;;;6.47;;
70078;SDS011;57451;52.496;13.456;2022-11-20T02:53:57;14.38;;;7.88;;
70078;SDS011;57451;52.496;13.456;2022-11-20T02:56:25;15.20;;;7.50;;
70078;SDS011;57451;52.496;13.456;2022-11-20T02:58:53;14.23;;;7.63;;
70078;SDS011;57451;52.496;13.456;2022-11-20T03:01:20;14.05;;;7.43;;
70078;SDS011;57451;52.496;13.456;2022-11-20T03:03:48;16.13;;;7.20;;
70078;SDS011;57451;52.496;13.456;2022-11-20T03:06:15;15.35;;;6.97;;
70078;SDS011;57451;52.496;13.456;2022-11-20T03:08:43;15.70;;;7.17;;
70078;SDS011;57451;52.496;13.456;2022-11-20T03:11:10;14.20;;;7.32;;
70078;SDS011;57451;52.496;13.456;2022-11-20T03:13:39;16.08;;;7.18;;
70078;SDS011;57451;52.496;13.456;2022-11-20T03:16:07;13.07;;;6.65;;
70078;SDS011;57451;52.496;13.456;2022-11-20T03:18:35;13.98;;;7.30;;
70078;SDS011;57451;52.496;13.456;2022-11-20T03:21:03;16.37;;;6.90;;
70078;SDS011;57451;52.496;13.456;2022-11-20T03:23:31;14.27;;;7.20;;
70078;SDS011;57451;52.496;13.456;2022-11-20T03:26:09;16.42;;;6.32;;
70078;SDS011;57451;52.496;13.456;2022-11-20T03:28:37;16.35;;;7.55;;
70078;SDS011;57451;52.496;13.456;2022-11-20T03:31:07;15.65;;;7.68;;
70078;SDS011;57451;52.496;13.456;2022-11-20T03:33:35;14.90;;;7.70;;
70078;SDS011;57451;52.496;13.456;2022-11-20T03:36:03;13.25;;;6.22;;
70078;SDS011;57451;52.496;13.456;2022-11-20T03:38:32;14.85;;;7.60;;
70078;SDS011;57451;52.496;13.456;2022-11-20T03:41:00;16.15;;;7.88;;
70078;SDS011;57451;52.496;13.456;2022-11-20T03:43:28;13.90;;;7.30;;
70078;SDS011;57451;52.496;13.456;2022-11-20T03:45:55;14.60;;;6.90;;
70078;SDS011;57451;52.496;13.456;2022-11-20T03:48:24;15.55;;;7.57;;
70078;SDS011;57451;52.496;13.456;2022-11-20T03:50:52;15.60;;;8.13;;
70078;SDS011;57451;52.496;13.456;2022-11-20T03:53:32;15.38;;;7.63;;
70078;SDS011;57451;52.496;13.456;2022-11-20T03:55:59;15.85;;;7.85;;
70078;SDS011;57451;52.496;13.456;2022-11-20T03:58:27;15.60;;;7.50;;
70078;SDS011;57451;52.496;13.456;2022-11-20T04:00:54;16.67;;;7.10;;
70078;SDS011;57451;52.496;13.456;2022-11-20T04:03:21;17.20;;;7.40;;
70078;SDS011;57451;52.496;13.456;2022-11-20T04:05:50;16.77;;;7.55;;
70078;SDS011;57451;52.496;13.456;2022-11-20T04:08:17;17.52;;;7.78;;
70078;SDS011;57451;52.496;13.456;2022-11-20T04:10:44;13.77;;;7.03;;
70078;SDS011;57451;52.496;13.456;2022-11-20T04:13:11;15.10;;;7.15;;
70078;SDS011;57451;52.496;13.456;2022-11-20T04:15:38;17.30;;;7.30;;
70078;SDS011;57451;52.496;13.456;2022-11-20T04:18:06;16.10;;;7.88;;
70078;SDS011;57451;52.496;13.456;2022-11-20T04:20:33;17.25;;;7.78;;
70078;SDS011;57451;52.496;13.456;2022-11-20T04:23:02;11.00;;;4.77;;
70078;SDS011;57451;52.496;13.456;2022-11-20T04:25:29;15.27;;;7.18;;
70078;SDS011;57451;52.496;13.456;2022-11-20T04:27:57;16.20;;;7.50;;
70078;SDS011;57451;52.496;13.456;2022-11-20T04:30:24;17.67;;;7.88;;
70078;SDS011;57451;52.496;13.456;2022-11-20T04:32:51;16.38;;;7.57;;
70078;SDS011;57451;52.496;13.456;2022-11-20T04:35:18;16.50;;;8.17;;
70078;SDS011;57451;52.496;13.456;2022-11-20T04:37:46;14.68;;;7.90;;
70078;SDS011;57451;52.496;13.456;2022-11-20T04:40:14;16.77;;;8.13;;
70078;SDS011;57451;52.496;13.456;2022-11-20T04:42:41;16.88;;;7.95;;
70078;SDS011;57451;52.496;13.456;2022-11-20T04:45:09;14.68;;;8.13;;
70078;SDS011;57451;52.496;13.456;2022-11-20T04:47:36;15.97;;;7.83;;
70078;SDS011;57451;52.496;13.456;2022-11-20T04:50:04;14.30;;;7.38;;
70078;SDS011;57451;52.496;13.456;2022-11-20T04:52:32;16.10;;;6.88;;
70078;SDS011;57451;52.496;13.456;2022-11-20T04:54:59;17.02;;;7.65;;
70078;SDS011;57451;52.496;13.456;2022-11-20T04:57:27;14.43;;;7.50;;
70078;SDS011;57451;52.496;13.456;2022-11-20T04:59:54;14.53;;;7.30;;
70078;SDS011;57451;52.496;13.456;2022-11-20T05:02:22;14.88;;;8.10;;
70078;SDS011;57451;52.496;13.456;2022-11-20T05:04:49;18.00;;;8.30;;
70078;SDS011;57451;52.496;13.456;2022-11-20T05:07:17;15.02;;;7.90;;
70078;SDS011;57451;52.496;13.456;2022-11-20T05:09:44;19.02;;;8.60;;
70078;SDS011;57451;52.496;13.456;2022-11-20T05:12:11;17.77;;;7.63;;
70078;SDS011;57451;52.496;13.456;2022-11-20T05:14:40;18.30;;;7.40;;
70078;SDS011;57451;52.496;13.456;2022-11-20T05:17:09;14.98;;;7.82;;
70078;SDS011;57451;52.496;13.456;2022-11-20T05:19:37;16.95;;;7.47;;
70078;SDS011;57451;52.496;13.456;2022-11-20T05:22:04;17.85;;;8.25;;
70078;SDS011;57451;52.496;13.456;2022-11-20T05:24:31;19.97;;;8.37;;
70078;SDS011;57451;52.496;13.456;2022-11-20T05:26:59;17.52;;;8.18;;
70078;SDS011;57451;52.496;13.456;2022-11-20T05:29:26;16.88;;;8.57;;
70078;SDS011;57451;52.496;13.456;2022-11-20T05:31:54;19.90;;;8.60;;
70078;SDS011;57451;52.496;13.456;2022-11-20T05:34:22;15.85;;;7.63;;
70078;SDS011;57451;52.496;13.456;2022-11-20T05:36:49;16.83;;;8.40;;
70078;SDS011;57451;52.496;13.456;2022-11-20T05:39:16;18.42;;;8.38;;
70078;SDS011;57451;52.496;13.456;2022-11-20T05:41:43;18.50;;;8.48;;
70078;SDS011;57451;52.496;13.456;2022-11-20T05:44:11;15.95;;;7.95;;
70078;SDS011;57451;52.496;13.456;2022-11-20T05:46:39;17.67;;;8.27;;
70078;SDS011;57451;52.496;13.456;2022-11-20T05:49:08;18.50;;;7.73;;
70078;SDS011;57451;52.496;13.456;2022-11-20T05:51:35;16.33;;;8.18;;
70078;SDS011;57451;52.496;13.456;2022-11-20T05:54:02;16.58;;;7.78;;
70078;SDS011;57451;52.496;13.456;2022-11-20T05:56:30;14.95;;;7.53;;
70078;SDS011;57451;52.496;13.456;2022-11-20T05:58:57;17.58;;;8.02;;
70078;SDS011;57451;52.496;13.456;2022-11-20T06:01:25;17.43;;;8.07;;
70078;SDS011;57451;52.496;13.456;2022-11-20T06:03:52;19.02;;;7.95;;
70078;SDS011;57451;52.496;13.456;2022-11-20T06:06:21;15.30;;;7.50;;
70078;SDS011;57451;52.496;13.456;2022-11-20T06:08:49;17.15;;;7.90;;
70078;SDS011;57451;52.496;13.456;2022-11-20T06:11:16;16.15;;;7.82;;
70078;SDS011;57451;52.496;13.456;2022-11-20T06:13:44;18.57;;;8.80;;
70078;SDS011;57451;52.496;13.456;2022-11-20T06:16:13;20.17;;;8.85;;
70078;SDS011;57451;52.496;13.456;2022-11-20T06:18:42;16.05;;;8.27;;
70078;SDS011;57451;52.496;13.456;2022-11-20T06:21:10;20.35;;;8.95;;
70078;SDS011;57451;52.496;13.456;2022-11-20T06:23:40;15.43;;;7.72;;
70078;SDS011;57451;52.496;13.456;2022-11-20T06:26:08;16.57;;;8.27;;
70078;SDS011;57451;52.496;13.456;2022-11-20T06:28:36;18.20;;;8.13;;
70078;SDS011;57451;52.496;13.456;2022-11-20T06:31:04;16.98;;;8.15;;
70078;SDS011;57451;52.496;13.456;2022-11-20T06:33:32;15.63;;;8.02;;
70078;SDS011;57451;52.496;13.456;2022-11-20T06:35:59;19.05;;;8.52;;
70078;SDS011;57451;52.496;13.456;2022-11-20T06:38:36;17.33;;;7.70;;
70078;SDS011;57451;52.496;13.456;2022-11-20T06:41:05;16.20;;;8.15;;
70078;SDS011;57451;52.496;13.456;2022-11-20T06:43:32;16.52;;;8.63;;
70078;SDS011;57451;52.496;13.456;2022-11-20T06:46:00;17.67;;;8.48;;
70078;SDS011;57451;52.496;13.456;2022-11-20T06:48:27;17.50;;;8.43;;
70078;SDS011;57451;52.496;13.456;2022-11-20T06:50:55;18.30;;;8.63;;
70078;SDS011;57451;52.496;13.456;2022-11-20T06:53:22;18.67;;;8.70;;
70078;SDS011;57451;52.496;13.456;2022-11-20T06:55:50;16.10;;;7.20;;
70078;SDS011;57451;52.496;13.456;2022-11-20T06:58:19;16.90;;;8.10;;
70078;SDS011;57451;52.496;13.456;2022-11-20T07:00:47;16.63;;;8.02;;
70078;SDS011;57451;52.496;13.456;2022-11-20T07:03:14;18.00;;;7.83;;
70078;SDS011;57451;52.496;13.456;2022-11-20T07:05:41;16.83;;;8.15;;
70078;SDS011;57451;52.496;13.456;2022-11-20T07:08:08;16.25;;;8.60;;
70078;SDS011;57451;52.496;13.456;2022-11-20T07:10:36;16.42;;;7.68;;
70078;SDS011;57451;52.496;13.456;2022-11-20T07:13:03;17.38;;;8.85;;
70078;SDS011;57451;52.496;13.456;2022-11-20T07:15:32;19.10;;;8.10;;
70078;SDS011;57451;52.496;13.456;2022-11-20T07:17:59;17.77;;;8.20;;
70078;SDS011;57451;52.496;13.456;2022-11-20T07:20:26;15.73;;;7.07;;
70078;SDS011;57451;52.496;13.456;2022-11-20T07:22:54;19.45;;;8.43;;
70078;SDS011;57451;52.496;13.456;2022-11-20T07:25:22;18.77;;;8.57;;
70078;SDS011;57451;52.496;13.456;2022-11-20T07:27:50;17.70;;;7.70;;
70078;SDS011;57451;52.496;13.456;2022-11-20T07:30:17;18.70;;;8.45;;
70078;SDS011;57451;52.496;13.456;2022-11-20T07:32:47;16.55;;;8.50;;
70078;SDS011;57451;52.496;13.456;2022-11-20T07:35:17;17.85;;;8.50;;
70078;SDS011;57451;52.496;13.456;2022-11-20T07:37:44;18.83;;;8.32;;
70078;SDS011;57451;52.496;13.456;2022-11-20T07:40:12;23.00;;;9.10;;
70078;SDS011;57451;52.496;13.456;2022-11-20T07:42:46;17.40;;;8.50;;
70078;SDS011;57451;52.496;13.456;2022-11-20T07:45:14;14.98;;;8.55;;
70078;SDS011;57451;52.496;13.456;2022-11-20T07:47:42;17.63;;;8.27;;
70078;SDS011;57451;52.496;13.456;2022-11-20T07:50:10;16.27;;;8.05;;
70078;SDS011;57451;52.496;13.456;2022-11-20T07:52:38;19.07;;;7.47;;
70078;SDS011;57451;52.496;13.456;2022-11-20T07:55:05;18.65;;;8.38;;
70078;SDS011;57451;52.496;13.456;2022-11-20T07:57:34;16.20;;;7.75;;
70078;SDS011;57451;52.496;13.456;2022-11-20T08:00:01;20.73;;;9.10;;
70078;SDS011;57451;52.496;13.456;2022-11-20T08:02:37;18.98;;;8.75;;
70078;SDS011;57451;52.496;13.456;2022-11-20T08:05:06;19.50;;;9.03;;
70078;SDS011;57451;52.496;13.456;2022-11-20T08:07:38;18.92;;;7.90;;
70078;SDS011;57451;52.496;13.456;2022-11-20T08:10:07;17.80;;;8.95;;
70078;SDS011;57451;52.496;13.456;2022-11-20T08:12:42;17.98;;;8.93;;
70078;SDS011;57451;52.496;13.456;2022-11-20T08:15:29;18.17;;;8.67;;
70078;SDS011;57451;52.496;13.456;2022-11-20T08:18:00;17.42;;;8.05;;
70078;SDS011;57451;52.496;13.456;2022-11-20T08:20:48;14.05;;;6.32;;
70078;SDS011;57451;52.496;13.456;2022-11-20T08:23:17;14.88;;;7.55;;
70078;SDS011;57451;52.496;13.456;2022-11-20T08:25:48;22.92;;;9.63;;
70078;SDS011;57451;52.496;13.456;2022-11-20T08:28:16;18.60;;;8.43;;
70078;SDS011;57451;52.496;13.456;2022-11-20T08:30:47;19.73;;;8.00;;
70078;SDS011;57451;52.496;13.456;2022-11-20T08:33:15;15.88;;;8.75;;
70078;SDS011;57451;52.496;13.456;2022-11-20T08:35:44;18.73;;;8.98;;
70078;SDS011;57451;52.496;13.456;2022-11-20T08:38:11;18.35;;;8.13;;
70078;SDS011;57451;52.496;13.456;2022-11-20T08:40:39;17.10;;;8.00;;
70078;SDS011;57451;52.496;13.456;2022-11-20T08:43:07;18.77;;;9.30;;
70078;SDS011;57451;52.496;13.456;2022-11-20T08:45:34;18.60;;;8.60;;
70078;SDS011;57451;52.496;13.456;2022-11-20T08:48:01;18.13;;;8.30;;
70078;SDS011;57451;52.496;13.456;2022-11-20T08:50:30;17.27;;;8.55;;
70078;SDS011;57451;52.496;13.456;2022-11-20T08:53:02;22.70;;;8.83;;
70078;SDS011;57451;52.496;13.456;2022-11-20T08:55:30;16.83;;;8.30;;
70078;SDS011;57451;52.496;13.456;2022-11-20T08:57:58;22.33;;;9.05;;
70078;SDS011;57451;52.496;13.456;2022-11-20T09:00:30;17.05;;;8.85;;
70078;SDS011;57451;52.496;13.456;2022-11-20T09:02:57;18.88;;;9.10;;
70078;SDS011;57451;52.496;13.456;2022-11-20T09:05:25;19.03;;;8.30;;
70078;SDS011;57451;52.496;13.456;2022-11-20T09:07:55;18.67;;;8.75;;
70078;SDS011;57451;52.496;13.456;2022-11-20T09:10:22;18.95;;;8.10;;
70078;SDS011;57451;52.496;13.456;2022-11-20T09:12:51;18.42;;;8.82;;
70078;SDS011;57451;52.496;13.456;2022-11-20T09:15:20;15.95;;;7.95;;
70078;SDS011;57451;52.496;13.456;2022-11-20T09:17:50;19.80;;;8.67;;
70078;SDS011;57451;52.496;13.456;2022-11-20T09:20:18;21.88;;;8.80;;
70078;SDS011;57451;52.496;13.456;2022-11-20T09:22:45;17.60;;;8.82;;
70078;SDS011;57451;52.496;13.456;2022-11-20T09:25:12;17.25;;;8.45;;
70078;SDS011;57451;52.496;13.456;2022-11-20T09:27:40;18.40;;;8.32;;
70078;SDS011;57451;52.496;13.456;2022-11-20T09:30:10;17.10;;;7.07;;
70078;SDS011;57451;52.496;13.456;2022-11-20T09:32:40;16.85;;;7.95;;
70078;SDS011;57451;52.496;13.456;2022-11-20T09:35:08;18.13;;;7.85;;
70078;SDS011;57451;52.496;13.456;2022-11-20T09:37:36;20.05;;;8.88;;
70078;SDS011;57451;52.496;13.456;2022-11-20T09:40:04;15.45;;;8.02;;
70078;SDS011;57451;52.496;13.456;2022-11-20T09:42:34;16.07;;;7.87;;
70078;SDS011;57451;52.496;13.456;2022-11-20T09:45:12;22.35;;;9.27;;
70078;SDS011;57451;52.496;13.456;2022-11-20T09:47:48;18.85;;;9.10;;
70078;SDS011;57451;52.496;13.456;2022-11-20T09:50:28;16.83;;;8.63;;
70078;SDS011;57451;52.496;13.456;2022-11-20T09:53:04;17.45;;;8.27;;
70078;SDS011;57451;52.496;13.456;2022-11-20T09:55:39;17.43;;;9.17;;
70078;SDS011;57451;52.496;13.456;2022-11-20T09:58:07;19.27;;;8.45;;
70078;SDS011;57451;52.496;13.456;2022-11-20T10:00:39;17.20;;;8.55;;
70078;SDS011;57451;52.496;13.456;2022-11-20T10:03:11;21.63;;;10.13;;
70078;SDS011;57451;52.496;13.456;2022-11-20T10:05:43;17.63;;;8.65;;
70078;SDS011;57451;52.496;13.456;2022-11-20T10:08:14;17.13;;;8.50;;
70078;SDS011;57451;52.496;13.456;2022-11-20T10:10:47;19.50;;;8.63;;
70078;SDS011;57451;52.496;13.456;2022-11-20T10:13:22;17.20;;;8.80;;
70078;SDS011;57451;52.496;13.456;2022-11-20T10:16:01;18.20;;;8.80;;
70078;SDS011;57451;52.496;13.456;2022-11-20T10:18:43;17.08;;;8.80;;
70078;SDS011;57451;52.496;13.456;2022-11-20T10:21:20;13.97;;;6.33;;
70078;SDS011;57451;52.496;13.456;2022-11-20T10:26:55;20.50;;;8.65;;
70078;SDS011;57451;52.496;13.456;2022-11-20T10:29:29;18.45;;;8.93;;
70078;SDS011;57451;52.496;13.456;2022-11-20T10:32:01;18.27;;;8.10;;
70078;SDS011;57451;52.496;13.456;2022-11-20T10:34:33;16.63;;;8.70;;
70078;SDS011;57451;52.496;13.456;2022-11-20T10:37:09;15.80;;;8.40;;
70078;SDS011;57451;52.496;13.456;2022-11-20T10:39:42;15.55;;;6.78;;
70078;SDS011;57451;52.496;13.456;2022-11-20T10:42:26;17.85;;;8.43;;
70078;SDS011;57451;52.496;13.456;2022-11-20T10:45:00;18.80;;;9.25;;
70078;SDS011;57451;52.496;13.456;2022-11-20T10:47:40;19.67;;;8.97;;
70078;SDS011;57451;52.496;13.456;2022-11-20T10:50:18;19.23;;;8.82;;
70078;SDS011;57451;52.496;13.456;2022-11-20T10:52:51;18.83;;;9.38;;
70078;SDS011;57451;52.496;13.456;2022-11-20T10:55:25;18.83;;;9.07;;
70078;SDS011;57451;52.496;13.456;2022-11-20T10:57:59;15.88;;;7.90;;
70078;SDS011;57451;52.496;13.456;2022-11-20T11:00:34;20.10;;;9.60;;
70078;SDS011;57451;52.496;13.456;2022-11-20T11:03:01;18.05;;;8.30;;
70078;SDS011;57451;52.496;13.456;2022-11-20T11:05:33;17.42;;;9.40;;
70078;SDS011;57451;52.496;13.456;2022-11-20T11:08:07;20.33;;;9.90;;
70078;SDS011;57451;52.496;13.456;2022-11-20T11:10:39;13.25;;;6.28;;
70078;SDS011;57451;52.496;13.456;2022-11-20T11:13:19;20.00;;;9.83;;
70078;SDS011;57451;52.496;13.456;2022-11-20T11:15:47;18.63;;;9.30;;
70078;SDS011;57451;52.496;13.456;2022-11-20T11:18:22;18.23;;;9.10;;
70078;SDS011;57451;52.496;13.456;2022-11-20T11:20:54;19.48;;;8.70;;
70078;SDS011;57451;52.496;13.456;2022-11-20T11:23:28;19.00;;;9.02;;
70078;SDS011;57451;52.496;13.456;2022-11-20T11:25:58;16.67;;;7.57;;
70078;SDS011;57451;52.496;13.456;2022-11-20T11:28:27;17.25;;;8.90;;
70078;SDS011;57451;52.496;13.456;2022-11-20T11:30:55;19.33;;;8.57;;
70078;SDS011;57451;52.496;13.456;2022-11-20T11:33:23;19.30;;;9.07;;
70078;SDS011;57451;52.496;13.456;2022-11-20T11:35:53;16.30;;;8.90;;
70078;SDS011;57451;52.496;13.456;2022-11-20T11:38:28;18.73;;;8.73;;
70078;SDS011;57451;52.496;13.456;2022-11-20T11:40:57;19.02;;;9.52;;
70078;SDS011;57451;52.496;13.456;2022-11-20T11:43:26;19.02;;;9.10;;
70078;SDS011;57451;52.496;13.456;2022-11-20T11:46:25;15.98;;;8.77;;
70078;SDS011;57451;52.496;13.456;2022-11-20T11:49:01;15.35;;;7.78;;
70078;SDS011;57451;52.496;13.456;2022-11-20T11:51:52;16.00;;;8.20;;
70078;SDS011;57451;52.496;13.456;2022-11-20T11:54:34;15.88;;;8.30;;
70078;SDS011;57451;52.496;13.456;2022-11-20T11:57:10;16.02;;;9.35;;
70078;SDS011;57451;52.496;13.456;2022-11-20T11:59:46;18.48;;;8.48;;
70078;SDS011;57451;52.496;13.456;2022-11-20T12:02:27;17.70;;;8.73;;
70078;SDS011;57451;52.496;13.456;2022-11-20T12:05:03;17.87;;;8.80;;
70078;SDS011;57451;52.496;13.456;2022-11-20T12:07:43;17.55;;;8.80;;
70078;SDS011;57451;52.496;13.456;2022-11-20T12:10:18;17.35;;;8.43;;
70078;SDS011;57451;52.496;13.456;2022-11-20T12:12:49;17.67;;;8.93;;
70078;SDS011;57451;52.496;13.456;2022-11-20T12:15:25;17.77;;;8.95;;
70078;SDS011;57451;52.496;13.456;2022-11-20T12:17:55;15.70;;;8.67;;
70078;SDS011;57451;52.496;13.456;2022-11-20T12:20:24;17.00;;;8.07;;
70078;SDS011;57451;52.496;13.456;2022-11-20T12:22:59;22.83;;;8.80;;
70078;SDS011;57451;52.496;13.456;2022-11-20T12:25:31;14.55;;;8.43;;
70078;SDS011;57451;52.496;13.456;2022-11-20T12:28:08;20.25;;;9.02;;
70078;SDS011;57451;52.496;13.456;2022-11-20T12:30:54;16.37;;;7.77;;
70078;SDS011;57451;52.496;13.456;2022-11-20T12:33:42;14.43;;;7.43;;
70078;SDS011;57451;52.496;13.456;2022-11-20T12:36:23;16.55;;;8.13;;
70078;SDS011;57451;52.496;13.456;2022-11-20T12:39:15;16.88;;;8.48;;
70078;SDS011;57451;52.496;13.456;2022-11-20T12:42:22;16.15;;;8.18;;
70078;SDS011;57451;52.496;13.456;2022-11-20T12:48:30;16.05;;;7.60;;
70078;SDS011;57451;52.496;13.456;2022-11-20T12:51:19;16.60;;;7.60;;
70078;SDS011;57451;52.496;13.456;2022-11-20T12:54:00;15.18;;;7.50;;
70078;SDS011;57451;52.496;13.456;2022-11-20T12:56:48;14.77;;;7.47;;
70078;SDS011;57451;52.496;13.456;2022-11-20T12:59:26;13.87;;;7.00;;
70078;SDS011;57451;52.496;13.456;2022-11-20T13:02:11;15.05;;;6.82;;
70078;SDS011;57451;52.496;13.456;2022-11-20T13:04:49;16.10;;;7.30;;
70078;SDS011;57451;52.496;13.456;2022-11-20T13:07:31;12.93;;;6.60;;
70078;SDS011;57451;52.496;13.456;2022-11-20T13:10:00;11.50;;;6.15;;
70078;SDS011;57451;52.496;13.456;2022-11-20T13:12:31;14.90;;;6.37;;
70078;SDS011;57451;52.496;13.456;2022-11-20T13:15:04;13.55;;;6.32;;
70078;SDS011;57451;52.496;13.456;2022-11-20T13:17:41;14.18;;;5.88;;
70078;SDS011;57451;52.496;13.456;2022-11-20T13:20:14;13.43;;;6.28;;
70078;SDS011;57451;52.496;13.456;2022-11-20T13:22:44;11.88;;;5.20;;
70078;SDS011;57451;52.496;13.456;2022-11-20T13:25:21;11.93;;;5.33;;
70078;SDS011;57451;52.496;13.456;2022-11-20T13:27:51;10.70;;;5.70;;
70078;SDS011;57451;52.496;13.456;2022-11-20T13:30:20;10.65;;;5.18;;
70078;SDS011;57451;52.496;13.456;2022-11-20T13:32:52;9.48;;;5.35;;
70078;SDS011;57451;52.496;13.456;2022-11-20T13:35:25;10.70;;;5.47;;
70078;SDS011;57451;52.496;13.456;2022-11-20T13:38:04;12.47;;;6.03;;
70078;SDS011;57451;52.496;13.456;2022-11-20T13:40:34;10.65;;;4.82;;
70078;SDS011;57451;52.496;13.456;2022-11-20T13:43:19;13.45;;;5.60;;
70078;SDS011;57451;52.496;13.456;2022-11-20T13:45:56;11.80;;;5.90;;
70078;SDS011;57451;52.496;13.456;2022-11-20T13:48:26;13.15;;;5.70;;
70078;SDS011;57451;52.496;13.456;2022-11-20T13:51:00;11.87;;;5.17;;
70078;SDS011;57451;52.496;13.456;2022-11-20T13:53:40;12.77;;;5.57;;
70078;SDS011;57451;52.496;13.456;2022-11-20T13:56:21;10.23;;;5.13;;
70078;SDS011;57451;52.496;13.456;2022-11-20T13:58:56;10.90;;;5.10;;
70078;SDS011;57451;52.496;13.456;2022-11-20T14:01:37;10.27;;;5.70;;
70078;SDS011;57451;52.496;13.456;2022-11-20T14:04:06;9.63;;;4.97;;
70078;SDS011;57451;52.496;13.456;2022-11-20T14:06:38;11.68;;;5.05;;
70078;SDS011;57451;52.496;13.456;2022-11-20T14:09:10;13.32;;;5.45;;
70078;SDS011;57451;52.496;13.456;2022-11-20T14:11:45;12.52;;;5.40;;
70078;SDS011;57451;52.496;13.456;2022-11-20T14:14:15;10.50;;;5.05;;
70078;SDS011;57451;52.496;13.456;2022-11-20T14:16:44;10.97;;;5.30;;
70078;SDS011;57451;52.496;13.456;2022-11-20T14:19:27;12.73;;;5.53;;
70078;SDS011;57451;52.496;13.456;2022-11-20T14:22:07;10.25;;;4.80;;
70078;SDS011;57451;52.496;13.456;2022-11-20T14:24:37;10.60;;;5.50;;
70078;SDS011;57451;52.496;13.456;2022-11-20T14:27:04;12.27;;;5.50;;
70078;SDS011;57451;52.496;13.456;2022-11-20T14:29:38;12.87;;;5.73;;
70078;SDS011;57451;52.496;13.456;2022-11-20T14:32:08;13.73;;;5.70;;
70078;SDS011;57451;52.496;13.456;2022-11-20T14:34:37;12.20;;;5.82;;
70078;SDS011;57451;52.496;13.456;2022-11-20T14:37:10;12.13;;;6.22;;
70078;SDS011;57451;52.496;13.456;2022-11-20T14:39:47;14.07;;;5.78;;
70078;SDS011;57451;52.496;13.456;2022-11-20T14:42:16;12.10;;;5.87;;
70078;SDS011;57451;52.496;13.456;2022-11-20T14:44:46;12.48;;;6.97;;
70078;SDS011;57451;52.496;13.456;2022-11-20T14:47:16;11.88;;;6.13;;
70078;SDS011;57451;52.496;13.456;2022-11-20T14:49:45;13.20;;;6.60;;